Site contains unofficial IBTrACS data. Visit the IBTrACS Website to access archived data.

1859 Hurricane NOT_NAMED (1859277N22287)


IBTrACS version v04r00. Visit IBTrACS website for data access.
Please direct all questions to the IBTrACS Q and A forum

Storm track - Intensity - Wind Radii - Intensity Data - Source Data - All data

Summary Information

Storm ID 1859277N22287
Start Oct 3 21Z
Max Intensity 110 kt (Oct 5 12Z), 938 mb (Oct 6 12Z)
End Oct 12 12Z
ATCF IDs
Track status Best track data.

Storm track plot

Map of storm track

Intensity plots

Map of storm track

Radial wind information

No radial wind information for this storm


Position and Intensity Table

BASIN ISO_TIME_________ NATURE LAT LON MLC WIND MLC PRES
degrees north degrees east kts mb
NA 1859-10-03 21:00:00 TS 22.05 -72.65
NA 1859-10-04 00:00:00 NR 22.40 -72.30 100
NA 03:00:00 NR 22.75 -71.94 100
NA 06:00:00 NR 23.10 -71.60 100
NA 09:00:00 NR 23.38 -71.27 102
NA 12:00:00 NR 23.80 -71.00 105
NA 15:00:00 NR 24.54 -70.82 105
NA 18:00:00 NR 25.40 -70.70 105
NA 21:00:00 NR 26.15 -70.60 105
NA 1859-10-05 00:00:00 NR 26.90 -70.50 105
NA 03:00:00 NR 27.70 -70.35 105
NA 06:00:00 NR 28.50 -70.20 105
NA 09:00:00 NR 29.15 -70.21 107
NA 12:00:00 NR 30.00 -70.00 110
NA 15:00:00 NR 31.35 -69.18 110
NA 18:00:00 NR 32.90 -68.10 110
NA 21:00:00 NR 34.48 -67.20 110
NA 1859-10-06 00:00:00 NR 35.80 -66.20 110
NA 03:00:00 NR 36.48 -64.95 110
NA 06:00:00 NR 36.90 -63.60 110
NA 09:00:00 NR 37.55 -62.28 110
NA 12:00:00 NR 38.00 -61.00 110 938
NA 15:00:00 NR 37.99 -59.82 110
NA 18:00:00 NR 37.80 -58.70 110
NA 21:00:00 NR 37.75 -57.55 107
NA 1859-10-07 00:00:00 NR 37.70 -56.40 105
NA 03:00:00 NR 37.61 -55.25 102
NA 06:00:00 NR 37.50 -54.10 100
NA 09:00:00 NR 37.40 -52.91 97
NA 12:00:00 TS 37.30 -51.80 95
NA 15:00:00 TS 37.19 -50.86 95
NA 18:00:00 TS 37.10 -50.00 95
NA 21:00:00 TS 37.04 -49.10 92
NA 1859-10-08 00:00:00 TS 37.00 -48.20 90
NA 03:00:00 TS 36.95 -47.31 90
NA 06:00:00 TS 36.90 -46.40 90
NA 09:00:00 TS 36.82 -45.42 90
NA 12:00:00 TS 36.80 -44.50 90
NA 15:00:00 TS 36.92 -43.76 90
NA 18:00:00 TS 37.10 -43.10 90
NA 21:00:00 TS 37.25 -42.40 90
NA 1859-10-09 00:00:00 TS 37.40 -41.70 90
NA 03:00:00 TS 37.55 -40.99 87
NA 06:00:00 TS 37.70 -40.30 85
NA 09:00:00 TS 37.83 -39.62 85
NA 12:00:00 TS 38.00 -39.00 85
NA 15:00:00 TS 38.24 -38.48 85
NA 18:00:00 TS 38.50 -38.00 85
NA 21:00:00 TS 38.70 -37.50 85
NA 1859-10-10 00:00:00 TS 38.90 -37.00 85
NA 03:00:00 TS 39.15 -36.50 85
NA 06:00:00 TS 39.40 -36.00 85
NA 09:00:00 TS 39.56 -35.48 85
NA 12:00:00 TS 39.80 -35.00 85
NA 15:00:00 TS 40.26 -34.62 85
NA 18:00:00 TS 40.80 -34.30 85
NA 21:00:00 TS 41.26 -33.99 82
NA 1859-10-11 00:00:00 TS 41.70 -33.70 80
NA 03:00:00 TS 42.15 -33.40 80
NA 06:00:00 TS 42.60 -33.10 80
NA 09:00:00 TS 43.02 -32.79 80
NA 12:00:00 TS 43.50 -32.50 80
NA 15:00:00 TS 44.13 -32.25 77
NA 18:00:00 TS 44.80 -32.00 75
NA 21:00:00 TS 45.40 -31.70 75
NA 1859-10-12 00:00:00 TS 46.00 -31.40 75
NA 03:00:00 TS 46.65 -31.15 75
NA 06:00:00 TS 47.30 -30.90 75 975
NA 09:00:00 TS 47.91 -30.61 72
NA 12:00:00 ET 48.50 -30.30 70

Source Information

Agency Information
USA
TOKYO
CMA
HKO
NEWDELHI
REUNION
BOM
NADI
WELLINGTON
DS824
TD9636
TD9635
NEUMANN
MLC

All available IBTrACS Data

SEASON BASIN SUBBASIN ISO_TIME_________ NATURE LAT LON DIST2LAND LANDFALL IFLAG USA SSHS MLC LAT MLC LON MLC CLASS MLC WIND MLC PRES STORM SPEED STORM DIR
Year degrees north degrees east km km 1 degrees north degrees east kts mb kts degrees
1859 NA NA 1859-10-03 21:00:00 TS 22.05 -72.65 98 98 ______________ -1 10 43
1859 NA NA 1859-10-04 00:00:00 NR 22.40 -72.30 152 152 _____________O -1 22.40 -72.30 MH 100 10 43
1859 NA NA 03:00:00 NR 22.75 -71.94 202 202 _____________P -1 22.77 -71.95 MH 100 10 43
1859 NA NA 06:00:00 NR 23.10 -71.60 256 256 _____________O -1 23.10 -71.60 MH 100 9 44
1859 NA NA 09:00:00 NR 23.38 -71.27 301 301 _____________P -1 23.38 -71.27 MH 102 9 38
1859 NA NA 12:00:00 NR 23.80 -71.00 355 355 _____________O -1 23.80 -71.00 MH 105 12 20
1859 NA NA 15:00:00 NR 24.54 -70.82 432 432 _____________P -1 24.54 -70.82 MH 105 16 10
1859 NA NA 18:00:00 NR 25.40 -70.70 524 524 _____________O -1 25.40 -70.70 MH 105 16 7
1859 NA NA 21:00:00 NR 26.15 -70.60 599 599 _____________P -1 26.15 -70.60 MH 105 15 7
1859 NA NA 1859-10-05 00:00:00 NR 26.90 -70.50 685 685 _____________O -1 26.90 -70.50 MH 105 16 8
1859 NA NA 03:00:00 NR 27.70 -70.35 772 772 _____________P -1 27.70 -70.35 MH 105 16 9
1859 NA NA 06:00:00 NR 28.50 -70.20 861 861 _____________O -1 28.50 -70.20 MH 105 15 5
1859 NA NA 09:00:00 NR 29.15 -70.21 853 804 _____________P -1 29.15 -70.21 MH 107 15 6
1859 NA NA 12:00:00 NR 30.00 -70.00 803 768 _____________O -1 30.00 -70.00 MH 110 24 22
1859 NA NA 15:00:00 NR 31.35 -69.18 768 746 _____________P -1 31.35 -69.18 MH 110 33 29
1859 NA NA 18:00:00 NR 32.90 -68.10 750 748 _____________O -1 32.90 -68.10 MH 110 36 28
1859 NA NA 21:00:00 NR 34.48 -67.20 766 740 _____________P -1 34.48 -67.20 MH 110 33 28
1859 NA NA 1859-10-06 00:00:00 NR 35.80 -66.20 734 715 _____________O -1 35.80 -66.20 MH 110 27 42
1859 NA NA 03:00:00 NR 36.48 -64.95 726 726 _____________P -1 36.48 -64.95 MH 110 24 62
1859 NA NA 06:00:00 NR 36.90 -63.60 748 710 _____________O -1 36.90 -63.60 MH 110 24 64
1859 NA NA 09:00:00 NR 37.55 -62.28 713 699 _____________P -1 37.55 -62.28 MH 110 23 62
1859 NA NA 12:00:00 NR 38.00 -61.00 710 710 _____________O -1 38.00 -61.00 MH 110 938 20 77
1859 NA NA 15:00:00 NR 37.99 -59.82 766 766 _____________P -1 37.99 -59.82 MH 110 18 96
1859 NA NA 18:00:00 NR 37.80 -58.70 839 839 _____________O -1 37.80 -58.70 MH 110 18 98
1859 NA NA 21:00:00 NR 37.75 -57.55 883 883 _____________P -1 37.75 -57.55 MH 107 18 93
1859 NA NA 1859-10-07 00:00:00 NR 37.70 -56.40 920 920 _____________O -1 37.70 -56.40 MH 105 18 94
1859 NA NA 03:00:00 NR 37.61 -55.25 976 976 _____________P -1 37.61 -55.25 MH 102 18 96
1859 NA NA 06:00:00 NR 37.50 -54.10 1012 1012 _____________O -1 37.50 -54.10 MH 100 19 96
1859 NA NA 09:00:00 NR 37.40 -52.91 1023 1023 _____________P -1 37.40 -52.91 MH 97 18 96
1859 NA NA 12:00:00 TS 37.30 -51.80 1040 1040 _____________O -1 37.30 -51.80 HU 95 16 97
1859 NA NA 15:00:00 TS 37.19 -50.86 1062 1062 _____________P -1 37.19 -50.86 HU 95 14 98
1859 NA NA 18:00:00 TS 37.10 -50.00 1088 1088 _____________O -1 37.10 -50.00 HU 95 14 96
1859 NA NA 21:00:00 TS 37.04 -49.10 1119 1119 _____________P -1 37.04 -49.10 HU 92 14 94
1859 NA NA 1859-10-08 00:00:00 TS 37.00 -48.20 1144 1144 _____________O -1 37.00 -48.20 HU 90 14 94
1859 NA NA 03:00:00 TS 36.95 -47.31 1183 1183 _____________P -1 36.95 -47.31 HU 90 14 94
1859 NA NA 06:00:00 TS 36.90 -46.40 1215 1215 _____________O -1 36.90 -46.40 HU 90 15 95
1859 NA NA 09:00:00 TS 36.82 -45.42 1265 1265 _____________P -1 36.82 -45.42 HU 90 15 94
1859 NA NA 12:00:00 TS 36.80 -44.50 1304 1304 _____________O -1 36.80 -44.50 HU 90 13 86
1859 NA NA 15:00:00 TS 36.92 -43.76 1327 1327 _____________P -1 36.92 -43.76 HU 90 12 75
1859 NA NA 18:00:00 TS 37.10 -43.10 1343 1343 _____________O -1 37.10 -43.10 HU 90 11 73
1859 NA NA 21:00:00 TS 37.25 -42.40 1370 1362 _____________P -1 37.25 -42.40 HU 90 12 75
1859 NA NA 1859-10-09 00:00:00 TS 37.40 -41.70 1391 1391 _____________O -1 37.40 -41.70 HU 90 12 75
1859 NA NA 03:00:00 TS 37.55 -40.99 1422 1413 _____________P -1 37.55 -40.99 HU 87 11 75
1859 NA NA 06:00:00 TS 37.70 -40.30 1446 1446 _____________O -1 37.70 -40.30 HU 85 11 75
1859 NA NA 09:00:00 TS 37.83 -39.62 1480 1479 _____________P -1 37.83 -39.62 HU 85 11 74
1859 NA NA 12:00:00 TS 38.00 -39.00 1502 1502 _____________O -1 38.00 -39.00 HU 85 10 66
1859 NA NA 15:00:00 TS 38.24 -38.48 1518 1510 _____________P -1 38.24 -38.48 HU 85 9 58
1859 NA NA 18:00:00 TS 38.50 -38.00 1527 1526 _____________O -1 38.50 -38.00 HU 85 9 59
1859 NA NA 21:00:00 TS 38.70 -37.50 1545 1544 _____________P -1 38.70 -37.50 HU 85 9 63
1859 NA NA 1859-10-10 00:00:00 TS 38.90 -37.00 1564 1563 _____________O -1 38.90 -37.00 HU 85 9 60
1859 NA NA 03:00:00 TS 39.15 -36.50 1583 1576 _____________P -1 39.15 -36.50 HU 85 9 57
1859 NA NA 06:00:00 TS 39.40 -36.00 1597 1597 _____________O -1 39.40 -36.00 HU 85 9 62
1859 NA NA 09:00:00 TS 39.56 -35.48 1619 1619 _____________P -1 39.56 -35.48 HU 85 9 63
1859 NA NA 12:00:00 TS 39.80 -35.00 1641 1637 _____________O -1 39.80 -35.00 HU 85 10 43
1859 NA NA 15:00:00 TS 40.26 -34.62 1639 1627 _____________P -1 40.26 -34.62 HU 85 11 28
1859 NA NA 18:00:00 TS 40.80 -34.30 1628 1618 _____________O -1 40.80 -34.30 HU 85 11 26
1859 NA NA 21:00:00 TS 41.26 -33.99 1619 1615 _____________P -1 41.26 -33.99 HU 82 10 27
1859 NA NA 1859-10-11 00:00:00 TS 41.70 -33.70 1618 1613 _____________O -1 41.70 -33.70 HU 80 10 26
1859 NA NA 03:00:00 TS 42.15 -33.40 1618 1610 _____________P -1 42.15 -33.40 HU 80 10 26
1859 NA NA 06:00:00 TS 42.60 -33.10 1614 1612 _____________O -1 42.60 -33.10 HU 80 10 27
1859 NA NA 09:00:00 TS 43.02 -32.79 1617 1612 _____________P -1 43.02 -32.79 HU 80 10 26
1859 NA NA 12:00:00 TS 43.50 -32.50 1617 1607 _____________O -1 43.50 -32.50 HU 80 12 20
1859 NA NA 15:00:00 TS 44.13 -32.25 1614 1599 _____________P -1 44.13 -32.25 HU 77 13 15
1859 NA NA 18:00:00 TS 44.80 -32.00 1603 1600 _____________O -1 44.80 -32.00 HU 75 13 17
1859 NA NA 21:00:00 TS 45.40 -31.70 1606 1603 _____________P -1 45.40 -31.70 HU 75 13 19
1859 NA NA 1859-10-12 00:00:00 TS 46.00 -31.40 1611 1604 _____________O -1 46.00 -31.40 HU 75 13 17
1859 NA NA 03:00:00 TS 46.65 -31.15 1597 1547 _____________P -1 46.65 -31.15 HU 75 13 15
1859 NA NA 06:00:00 TS 47.30 -30.90 1547 1498 _____________O -1 47.30 -30.90 HU 75 975 13 16
1859 NA NA 09:00:00 TS 47.91 -30.61 1498 1450 _____________P -1 47.91 -30.61 HU 72 13 19
1859 NA NA 12:00:00 ET 48.50 -30.30 1450 _____________O -1 48.50 -30.30 EX 70 12 20